sensor_id;sensor_type;location;lat;lon;timestamp;P1;durP1;ratioP1;P2;durP2;ratioP2
8040;SDS011;4063;48.140;10.250;2022-08-30T00:00:29;12.27;;;9.50;;
8040;SDS011;4063;48.140;10.250;2022-08-30T00:03:14;10.85;;;9.75;;
8040;SDS011;4063;48.140;10.250;2022-08-30T00:05:41;9.77;;;8.88;;
8040;SDS011;4063;48.140;10.250;2022-08-30T00:08:07;12.02;;;9.98;;
8040;SDS011;4063;48.140;10.250;2022-08-30T00:10:33;11.02;;;9.25;;
8040;SDS011;4063;48.140;10.250;2022-08-30T00:12:59;10.77;;;8.95;;
8040;SDS011;4063;48.140;10.250;2022-08-30T00:15:25;10.63;;;9.73;;
8040;SDS011;4063;48.140;10.250;2022-08-30T00:17:53;9.90;;;8.95;;
8040;SDS011;4063;48.140;10.250;2022-08-30T00:20:21;12.20;;;9.77;;
8040;SDS011;4063;48.140;10.250;2022-08-30T00:22:47;10.95;;;9.95;;
8040;SDS011;4063;48.140;10.250;2022-08-30T00:25:13;12.52;;;9.73;;
8040;SDS011;4063;48.140;10.250;2022-08-30T00:27:40;10.38;;;9.40;;
8040;SDS011;4063;48.140;10.250;2022-08-30T00:30:08;11.30;;;10.25;;
8040;SDS011;4063;48.140;10.250;2022-08-30T00:32:34;11.05;;;9.95;;
8040;SDS011;4063;48.140;10.250;2022-08-30T00:35:00;10.30;;;9.40;;
8040;SDS011;4063;48.140;10.250;2022-08-30T00:37:26;10.82;;;9.93;;
8040;SDS011;4063;48.140;10.250;2022-08-30T00:39:52;9.77;;;8.77;;
8040;SDS011;4063;48.140;10.250;2022-08-30T00:42:19;9.80;;;8.90;;
8040;SDS011;4063;48.140;10.250;2022-08-30T00:44:45;10.57;;;9.57;;
8040;SDS011;4063;48.140;10.250;2022-08-30T00:47:11;10.88;;;9.88;;
8040;SDS011;4063;48.140;10.250;2022-08-30T00:49:38;10.68;;;9.18;;
8040;SDS011;4063;48.140;10.250;2022-08-30T00:52:05;9.48;;;8.65;;
8040;SDS011;4063;48.140;10.250;2022-08-30T00:54:31;11.65;;;9.70;;
8040;SDS011;4063;48.140;10.250;2022-08-30T00:56:58;9.88;;;9.07;;
8040;SDS011;4063;48.140;10.250;2022-08-30T00:59:24;11.48;;;8.93;;
8040;SDS011;4063;48.140;10.250;2022-08-30T01:01:51;9.70;;;8.80;;
8040;SDS011;4063;48.140;10.250;2022-08-30T01:04:17;9.20;;;8.40;;
8040;SDS011;4063;48.140;10.250;2022-08-30T01:06:45;7.70;;;6.90;;
8040;SDS011;4063;48.140;10.250;2022-08-30T01:09:11;10.23;;;8.45;;
8040;SDS011;4063;48.140;10.250;2022-08-30T01:11:38;8.73;;;7.95;;
8040;SDS011;4063;48.140;10.250;2022-08-30T01:14:06;6.55;;;5.30;;
8040;SDS011;4063;48.140;10.250;2022-08-30T01:16:33;8.30;;;7.55;;
8040;SDS011;4063;48.140;10.250;2022-08-30T01:18:59;10.68;;;8.45;;
8040;SDS011;4063;48.140;10.250;2022-08-30T01:23:57;9.13;;;7.97;;
8040;SDS011;4063;48.140;10.250;2022-08-30T01:26:24;686.22;;;116.03;;
8040;SDS011;4063;48.140;10.250;2022-08-30T01:28:52;66.07;;;40.67;;
8040;SDS011;4063;48.140;10.250;2022-08-30T01:31:19;219.65;;;117.50;;
8040;SDS011;4063;48.140;10.250;2022-08-30T01:33:45;9.43;;;8.55;;
8040;SDS011;4063;48.140;10.250;2022-08-30T01:36:12;11.27;;;8.57;;
8040;SDS011;4063;48.140;10.250;2022-08-30T01:38:39;9.45;;;8.65;;
8040;SDS011;4063;48.140;10.250;2022-08-30T01:41:11;10.60;;;9.00;;
8040;SDS011;4063;48.140;10.250;2022-08-30T01:43:38;10.75;;;9.65;;
8040;SDS011;4063;48.140;10.250;2022-08-30T01:46:04;10.15;;;9.10;;
8040;SDS011;4063;48.140;10.250;2022-08-30T01:48:30;9.20;;;8.40;;
8040;SDS011;4063;48.140;10.250;2022-08-30T01:50:56;10.15;;;9.23;;
8040;SDS011;4063;48.140;10.250;2022-08-30T01:53:22;9.63;;;8.73;;
8040;SDS011;4063;48.140;10.250;2022-08-30T01:55:48;9.48;;;8.60;;
8040;SDS011;4063;48.140;10.250;2022-08-30T01:58:14;9.10;;;7.97;;
8040;SDS011;4063;48.140;10.250;2022-08-30T02:00:40;8.45;;;7.75;;
8040;SDS011;4063;48.140;10.250;2022-08-30T02:03:06;9.07;;;8.20;;
8040;SDS011;4063;48.140;10.250;2022-08-30T02:05:33;9.70;;;8.80;;
8040;SDS011;4063;48.140;10.250;2022-08-30T02:07:59;10.10;;;8.52;;
8040;SDS011;4063;48.140;10.250;2022-08-30T02:10:25;8.88;;;8.18;;
8040;SDS011;4063;48.140;10.250;2022-08-30T02:12:51;9.88;;;8.80;;
8040;SDS011;4063;48.140;10.250;2022-08-30T02:15:17;10.13;;;8.95;;
8040;SDS011;4063;48.140;10.250;2022-08-30T02:17:43;1999.90;;;999.90;;
8040;SDS011;4063;48.140;10.250;2022-08-30T02:20:09;1999.90;;;999.90;;
8040;SDS011;4063;48.140;10.250;2022-08-30T02:22:35;1999.90;;;999.90;;
8040;SDS011;4063;48.140;10.250;2022-08-30T02:25:03;1999.90;;;999.90;;
8040;SDS011;4063;48.140;10.250;2022-08-30T02:27:29;40.15;;;38.15;;
8040;SDS011;4063;48.140;10.250;2022-08-30T02:29:55;56.50;;;53.90;;
8040;SDS011;4063;48.140;10.250;2022-08-30T02:32:21;58.88;;;56.08;;
8040;SDS011;4063;48.140;10.250;2022-08-30T02:34:47;67.28;;;63.90;;
8040;SDS011;4063;48.140;10.250;2022-08-30T02:37:13;1999.90;;;999.90;;
8040;SDS011;4063;48.140;10.250;2022-08-30T02:39:40;1999.90;;;999.90;;
8040;SDS011;4063;48.140;10.250;2022-08-30T02:42:06;1999.90;;;999.90;;
8040;SDS011;4063;48.140;10.250;2022-08-30T02:44:32;1999.90;;;999.90;;
8040;SDS011;4063;48.140;10.250;2022-08-30T02:46:58;1999.90;;;999.90;;
8040;SDS011;4063;48.140;10.250;2022-08-30T02:49:24;1999.90;;;999.90;;
8040;SDS011;4063;48.140;10.250;2022-08-30T02:51:50;1999.90;;;999.90;;
8040;SDS011;4063;48.140;10.250;2022-08-30T02:54:16;363.25;;;23.58;;
8040;SDS011;4063;48.140;10.250;2022-08-30T02:56:44;1.30;;;1.30;;
8040;SDS011;4063;48.140;10.250;2022-08-30T02:59:10;2.65;;;1.52;;
8040;SDS011;4063;48.140;10.250;2022-08-30T03:01:36;1.30;;;1.30;;
8040;SDS011;4063;48.140;10.250;2022-08-30T03:04:03;42.40;;;5.20;;
8040;SDS011;4063;48.140;10.250;2022-08-30T03:06:29;4.53;;;4.15;;
8040;SDS011;4063;48.140;10.250;2022-08-30T03:08:55;6.38;;;4.47;;
8040;SDS011;4063;48.140;10.250;2022-08-30T03:11:21;5.45;;;3.92;;
8040;SDS011;4063;48.140;10.250;2022-08-30T03:13:47;4.03;;;3.72;;
8040;SDS011;4063;48.140;10.250;2022-08-30T03:16:14;3.78;;;3.47;;
8040;SDS011;4063;48.140;10.250;2022-08-30T03:18:41;4.03;;;3.72;;
8040;SDS011;4063;48.140;10.250;2022-08-30T03:21:10;4.00;;;3.70;;
8040;SDS011;4063;48.140;10.250;2022-08-30T03:23:37;4.07;;;3.70;;
8040;SDS011;4063;48.140;10.250;2022-08-30T03:26:04;4.05;;;3.63;;
8040;SDS011;4063;48.140;10.250;2022-08-30T03:28:30;4.22;;;3.90;;
8040;SDS011;4063;48.140;10.250;2022-08-30T03:30:56;5.35;;;3.65;;
8040;SDS011;4063;48.140;10.250;2022-08-30T03:33:22;2.42;;;2.33;;
8040;SDS011;4063;48.140;10.250;2022-08-30T03:35:48;3.05;;;2.85;;
8040;SDS011;4063;48.140;10.250;2022-08-30T03:38:15;2.45;;;2.35;;
8040;SDS011;4063;48.140;10.250;2022-08-30T03:40:41;3.15;;;2.88;;
8040;SDS011;4063;48.140;10.250;2022-08-30T03:43:08;2.78;;;2.58;;
8040;SDS011;4063;48.140;10.250;2022-08-30T03:45:34;3.72;;;3.42;;
8040;SDS011;4063;48.140;10.250;2022-08-30T03:48:00;1999.90;;;999.90;;
8040;SDS011;4063;48.140;10.250;2022-08-30T03:50:27;1999.90;;;999.90;;
8040;SDS011;4063;48.140;10.250;2022-08-30T03:52:53;1999.90;;;999.90;;
8040;SDS011;4063;48.140;10.250;2022-08-30T03:55:20;1999.90;;;999.90;;
8040;SDS011;4063;48.140;10.250;2022-08-30T03:57:46;320.67;;;27.05;;
8040;SDS011;4063;48.140;10.250;2022-08-30T04:00:12;115.65;;;84.72;;
8040;SDS011;4063;48.140;10.250;2022-08-30T04:02:39;71.82;;;67.63;;
8040;SDS011;4063;48.140;10.250;2022-08-30T04:05:05;17.67;;;16.98;;
8040;SDS011;4063;48.140;10.250;2022-08-30T04:07:32;1.25;;;1.25;;
8040;SDS011;4063;48.140;10.250;2022-08-30T04:09:58;4.97;;;4.78;;
8040;SDS011;4063;48.140;10.250;2022-08-30T04:12:24;16.50;;;15.85;;
8040;SDS011;4063;48.140;10.250;2022-08-30T04:14:51;8.73;;;8.43;;
8040;SDS011;4063;48.140;10.250;2022-08-30T04:17:17;8.23;;;7.93;;
8040;SDS011;4063;48.140;10.250;2022-08-30T04:19:43;5.78;;;5.57;;
8040;SDS011;4063;48.140;10.250;2022-08-30T04:22:09;5.63;;;5.43;;
8040;SDS011;4063;48.140;10.250;2022-08-30T04:24:35;5.07;;;4.88;;
8040;SDS011;4063;48.140;10.250;2022-08-30T04:27:02;5.30;;;5.10;;
8040;SDS011;4063;48.140;10.250;2022-08-30T04:29:28;4.68;;;4.47;;
8040;SDS011;4063;48.140;10.250;2022-08-30T04:31:54;4.40;;;4.20;;
8040;SDS011;4063;48.140;10.250;2022-08-30T04:34:20;4.90;;;4.70;;
8040;SDS011;4063;48.140;10.250;2022-08-30T04:36:47;3.92;;;3.78;;
8040;SDS011;4063;48.140;10.250;2022-08-30T04:39:14;3.83;;;3.70;;
8040;SDS011;4063;48.140;10.250;2022-08-30T04:41:40;3.55;;;3.45;;
8040;SDS011;4063;48.140;10.250;2022-08-30T04:44:06;3.47;;;3.38;;
8040;SDS011;4063;48.140;10.250;2022-08-30T04:46:33;4.03;;;3.85;;
8040;SDS011;4063;48.140;10.250;2022-08-30T04:48:59;3.75;;;3.65;;
8040;SDS011;4063;48.140;10.250;2022-08-30T04:51:25;3.70;;;3.60;;
8040;SDS011;4063;48.140;10.250;2022-08-30T04:53:51;4.47;;;4.28;;
8040;SDS011;4063;48.140;10.250;2022-08-30T04:56:18;4.47;;;4.28;;
8040;SDS011;4063;48.140;10.250;2022-08-30T04:58:46;3.55;;;3.45;;
8040;SDS011;4063;48.140;10.250;2022-08-30T05:01:13;3.47;;;3.38;;
8040;SDS011;4063;48.140;10.250;2022-08-30T05:03:40;3.53;;;3.42;;
8040;SDS011;4063;48.140;10.250;2022-08-30T05:06:06;3.58;;;3.47;;
8040;SDS011;4063;48.140;10.250;2022-08-30T05:08:32;3.97;;;3.80;;
8040;SDS011;4063;48.140;10.250;2022-08-30T05:10:58;3.60;;;3.50;;
8040;SDS011;4063;48.140;10.250;2022-08-30T05:13:28;3.42;;;3.33;;
8040;SDS011;4063;48.140;10.250;2022-08-30T05:15:53;3.78;;;3.67;;
8040;SDS011;4063;48.140;10.250;2022-08-30T05:18:19;3.58;;;3.47;;
8040;SDS011;4063;48.140;10.250;2022-08-30T05:20:45;4.25;;;4.05;;
8040;SDS011;4063;48.140;10.250;2022-08-30T05:23:11;4.45;;;4.25;;
8040;SDS011;4063;48.140;10.250;2022-08-30T05:25:38;3.65;;;3.55;;
8040;SDS011;4063;48.140;10.250;2022-08-30T05:28:04;3.38;;;3.28;;
8040;SDS011;4063;48.140;10.250;2022-08-30T05:30:31;3.70;;;3.60;;
8040;SDS011;4063;48.140;10.250;2022-08-30T05:32:58;5.05;;;4.85;;
8040;SDS011;4063;48.140;10.250;2022-08-30T05:35:24;3.63;;;3.53;;
8040;SDS011;4063;48.140;10.250;2022-08-30T05:37:50;3.60;;;3.50;;
8040;SDS011;4063;48.140;10.250;2022-08-30T05:40:16;3.40;;;3.30;;
8040;SDS011;4063;48.140;10.250;2022-08-30T05:42:42;3.33;;;3.22;;
8040;SDS011;4063;48.140;10.250;2022-08-30T05:45:08;4.10;;;3.90;;
8040;SDS011;4063;48.140;10.250;2022-08-30T05:47:35;3.65;;;3.55;;
8040;SDS011;4063;48.140;10.250;2022-08-30T05:50:01;3.30;;;3.20;;
8040;SDS011;4063;48.140;10.250;2022-08-30T05:52:28;3.53;;;3.42;;
8040;SDS011;4063;48.140;10.250;2022-08-30T05:54:54;3.53;;;3.42;;
8040;SDS011;4063;48.140;10.250;2022-08-30T05:57:23;4.88;;;4.68;;
8040;SDS011;4063;48.140;10.250;2022-08-30T05:59:49;3.17;;;3.08;;
8040;SDS011;4063;48.140;10.250;2022-08-30T06:02:15;3.30;;;3.20;;
8040;SDS011;4063;48.140;10.250;2022-08-30T06:04:41;3.10;;;3.00;;
8040;SDS011;4063;48.140;10.250;2022-08-30T06:07:07;3.70;;;3.60;;
8040;SDS011;4063;48.140;10.250;2022-08-30T06:09:34;3.10;;;3.00;;
8040;SDS011;4063;48.140;10.250;2022-08-30T06:11:59;3.00;;;2.90;;
8040;SDS011;4063;48.140;10.250;2022-08-30T06:14:25;3.00;;;2.90;;
8040;SDS011;4063;48.140;10.250;2022-08-30T06:16:51;2.53;;;2.42;;
8040;SDS011;4063;48.140;10.250;2022-08-30T06:19:18;6.60;;;6.30;;
8040;SDS011;4063;48.140;10.250;2022-08-30T06:21:48;6.03;;;5.82;;
8040;SDS011;4063;48.140;10.250;2022-08-30T06:24:14;5.97;;;5.78;;
8040;SDS011;4063;48.140;10.250;2022-08-30T06:26:42;6.55;;;6.25;;
8040;SDS011;4063;48.140;10.250;2022-08-30T06:29:09;8.32;;;8.02;;
8040;SDS011;4063;48.140;10.250;2022-08-30T06:31:35;10.18;;;9.77;;
8040;SDS011;4063;48.140;10.250;2022-08-30T06:34:01;8.45;;;8.15;;
8040;SDS011;4063;48.140;10.250;2022-08-30T06:36:27;8.95;;;8.55;;
8040;SDS011;4063;48.140;10.250;2022-08-30T06:38:54;1999.90;;;999.90;;
8040;SDS011;4063;48.140;10.250;2022-08-30T06:41:22;1999.90;;;999.90;;
8040;SDS011;4063;48.140;10.250;2022-08-30T06:43:48;1531.85;;;756.17;;
8040;SDS011;4063;48.140;10.250;2022-08-30T06:46:16;1999.90;;;999.90;;
8040;SDS011;4063;48.140;10.250;2022-08-30T06:48:42;1999.90;;;999.90;;
8040;SDS011;4063;48.140;10.250;2022-08-30T06:51:08;1999.90;;;999.90;;
8040;SDS011;4063;48.140;10.250;2022-08-30T06:53:34;1999.90;;;999.90;;
8040;SDS011;4063;48.140;10.250;2022-08-30T06:56:02;1999.90;;;999.90;;
8040;SDS011;4063;48.140;10.250;2022-08-30T06:58:30;1999.90;;;999.90;;
8040;SDS011;4063;48.140;10.250;2022-08-30T07:00:57;1999.90;;;999.90;;
8040;SDS011;4063;48.140;10.250;2022-08-30T07:03:23;1999.90;;;999.90;;
8040;SDS011;4063;48.140;10.250;2022-08-30T07:05:51;1999.90;;;999.90;;
8040;SDS011;4063;48.140;10.250;2022-08-30T07:08:17;1999.90;;;999.90;;
8040;SDS011;4063;48.140;10.250;2022-08-30T07:10:46;1999.90;;;999.90;;
8040;SDS011;4063;48.140;10.250;2022-08-30T07:13:12;1999.90;;;999.90;;
8040;SDS011;4063;48.140;10.250;2022-08-30T07:15:42;1999.90;;;999.90;;
8040;SDS011;4063;48.140;10.250;2022-08-30T07:18:08;1999.90;;;999.90;;
8040;SDS011;4063;48.140;10.250;2022-08-30T07:21:08;1999.90;;;999.90;;
8040;SDS011;4063;48.140;10.250;2022-08-30T07:23:34;1999.90;;;999.90;;
8040;SDS011;4063;48.140;10.250;2022-08-30T07:26:03;1999.90;;;999.90;;
8040;SDS011;4063;48.140;10.250;2022-08-30T07:28:30;1999.90;;;999.90;;
8040;SDS011;4063;48.140;10.250;2022-08-30T07:30:56;1999.90;;;999.90;;
8040;SDS011;4063;48.140;10.250;2022-08-30T07:33:22;1999.90;;;999.90;;
8040;SDS011;4063;48.140;10.250;2022-08-30T07:35:48;1999.90;;;999.90;;
8040;SDS011;4063;48.140;10.250;2022-08-30T07:38:14;1999.90;;;999.90;;
8040;SDS011;4063;48.140;10.250;2022-08-30T07:40:40;1999.90;;;999.90;;
8040;SDS011;4063;48.140;10.250;2022-08-30T07:43:06;1999.90;;;999.90;;
8040;SDS011;4063;48.140;10.250;2022-08-30T07:45:32;1999.90;;;999.90;;
8040;SDS011;4063;48.140;10.250;2022-08-30T07:47:57;1999.90;;;999.90;;
8040;SDS011;4063;48.140;10.250;2022-08-30T07:50:23;1999.90;;;999.90;;
8040;SDS011;4063;48.140;10.250;2022-08-30T07:52:49;1999.90;;;999.90;;
8040;SDS011;4063;48.140;10.250;2022-08-30T07:55:15;1999.90;;;999.90;;
8040;SDS011;4063;48.140;10.250;2022-08-30T07:57:41;1999.90;;;999.90;;
8040;SDS011;4063;48.140;10.250;2022-08-30T08:00:08;1999.90;;;999.90;;
8040;SDS011;4063;48.140;10.250;2022-08-30T08:02:34;1999.90;;;999.90;;
8040;SDS011;4063;48.140;10.250;2022-08-30T08:05:01;1999.90;;;999.90;;
8040;SDS011;4063;48.140;10.250;2022-08-30T08:07:30;1999.90;;;999.90;;
8040;SDS011;4063;48.140;10.250;2022-08-30T08:09:56;1999.90;;;999.90;;
8040;SDS011;4063;48.140;10.250;2022-08-30T08:12:22;1999.90;;;999.90;;
8040;SDS011;4063;48.140;10.250;2022-08-30T08:14:48;1999.90;;;999.90;;
8040;SDS011;4063;48.140;10.250;2022-08-30T08:17:14;1999.90;;;999.90;;
8040;SDS011;4063;48.140;10.250;2022-08-30T08:19:41;1999.90;;;999.90;;
8040;SDS011;4063;48.140;10.250;2022-08-30T08:22:07;1999.90;;;999.90;;
8040;SDS011;4063;48.140;10.250;2022-08-30T08:24:33;1999.90;;;999.90;;
8040;SDS011;4063;48.140;10.250;2022-08-30T08:26:59;1999.90;;;999.90;;
8040;SDS011;4063;48.140;10.250;2022-08-30T08:29:24;57.22;;;46.03;;
8040;SDS011;4063;48.140;10.250;2022-08-30T08:31:52;1999.90;;;999.90;;
8040;SDS011;4063;48.140;10.250;2022-08-30T08:34:18;1999.90;;;999.90;;
8040;SDS011;4063;48.140;10.250;2022-08-30T08:36:47;292.88;;;84.05;;
8040;SDS011;4063;48.140;10.250;2022-08-30T08:39:13;1999.90;;;999.90;;
8040;SDS011;4063;48.140;10.250;2022-08-30T08:46:58;1999.90;;;999.90;;
8040;SDS011;4063;48.140;10.250;2022-08-30T08:49:25;1999.90;;;999.90;;
8040;SDS011;4063;48.140;10.250;2022-08-30T08:51:51;1999.90;;;999.90;;
8040;SDS011;4063;48.140;10.250;2022-08-30T08:54:49;1999.90;;;999.90;;
8040;SDS011;4063;48.140;10.250;2022-08-30T08:57:15;1999.90;;;999.90;;
8040;SDS011;4063;48.140;10.250;2022-08-30T08:59:42;1999.90;;;999.90;;
8040;SDS011;4063;48.140;10.250;2022-08-30T09:02:21;1999.90;;;999.90;;
8040;SDS011;4063;48.140;10.250;2022-08-30T09:04:48;1999.90;;;999.90;;
8040;SDS011;4063;48.140;10.250;2022-08-30T09:07:20;1999.90;;;999.90;;
8040;SDS011;4063;48.140;10.250;2022-08-30T09:09:46;1999.90;;;999.90;;
8040;SDS011;4063;48.140;10.250;2022-08-30T09:12:13;1999.90;;;999.90;;
8040;SDS011;4063;48.140;10.250;2022-08-30T09:14:42;1999.90;;;999.90;;
8040;SDS011;4063;48.140;10.250;2022-08-30T09:17:11;1999.90;;;999.90;;
8040;SDS011;4063;48.140;10.250;2022-08-30T09:22:20;1999.90;;;999.90;;
8040;SDS011;4063;48.140;10.250;2022-08-30T09:24:51;1999.90;;;999.90;;
8040;SDS011;4063;48.140;10.250;2022-08-30T09:27:26;1999.90;;;999.90;;
8040;SDS011;4063;48.140;10.250;2022-08-30T09:29:56;1999.90;;;999.90;;
8040;SDS011;4063;48.140;10.250;2022-08-30T09:32:26;1999.90;;;999.90;;
8040;SDS011;4063;48.140;10.250;2022-08-30T09:34:53;1999.90;;;999.90;;
8040;SDS011;4063;48.140;10.250;2022-08-30T09:37:23;1999.90;;;999.90;;
8040;SDS011;4063;48.140;10.250;2022-08-30T09:39:50;2.33;;;2.13;;
8040;SDS011;4063;48.140;10.250;2022-08-30T09:42:20;1.80;;;1.70;;
8040;SDS011;4063;48.140;10.250;2022-08-30T09:44:47;2.20;;;2.00;;
8040;SDS011;4063;48.140;10.250;2022-08-30T09:47:17;1999.90;;;999.90;;
8040;SDS011;4063;48.140;10.250;2022-08-30T09:49:44;4.43;;;3.90;;
8040;SDS011;4063;48.140;10.250;2022-08-30T09:55:20;5.95;;;4.78;;
8040;SDS011;4063;48.140;10.250;2022-08-30T10:00:13;5.18;;;4.65;;
8040;SDS011;4063;48.140;10.250;2022-08-30T10:02:42;7.50;;;4.30;;
8040;SDS011;4063;48.140;10.250;2022-08-30T10:10:16;8.77;;;4.63;;
8040;SDS011;4063;48.140;10.250;2022-08-30T10:20:25;8.05;;;3.95;;
8040;SDS011;4063;48.140;10.250;2022-08-30T10:25:37;3.97;;;3.58;;
8040;SDS011;4063;48.140;10.250;2022-08-30T10:28:08;3.88;;;3.58;;
8040;SDS011;4063;48.140;10.250;2022-08-30T10:30:39;4.13;;;3.53;;
8040;SDS011;4063;48.140;10.250;2022-08-30T10:33:07;4.50;;;3.78;;
8040;SDS011;4063;48.140;10.250;2022-08-30T10:35:36;5.32;;;4.28;;
8040;SDS011;4063;48.140;10.250;2022-08-30T10:38:05;4.82;;;4.15;;
8040;SDS011;4063;48.140;10.250;2022-08-30T10:40:37;4.07;;;3.35;;
8040;SDS011;4063;48.140;10.250;2022-08-30T10:45:49;5.40;;;3.97;;
8040;SDS011;4063;48.140;10.250;2022-08-30T10:48:17;4.15;;;3.83;;
8040;SDS011;4063;48.140;10.250;2022-08-30T10:50:50;6.22;;;4.18;;
8040;SDS011;4063;48.140;10.250;2022-08-30T10:53:18;4.20;;;3.80;;
8040;SDS011;4063;48.140;10.250;2022-08-30T10:55:54;3.75;;;3.17;;
8040;SDS011;4063;48.140;10.250;2022-08-30T10:58:21;4.10;;;3.70;;
8040;SDS011;4063;48.140;10.250;2022-08-30T11:00:59;3.63;;;3.33;;
8040;SDS011;4063;48.140;10.250;2022-08-30T11:13:42;5.60;;;3.45;;
8040;SDS011;4063;48.140;10.250;2022-08-30T11:16:17;4.43;;;3.20;;
8040;SDS011;4063;48.140;10.250;2022-08-30T11:18:46;7.40;;;3.63;;
8040;SDS011;4063;48.140;10.250;2022-08-30T11:24:11;3.67;;;3.38;;
8040;SDS011;4063;48.140;10.250;2022-08-30T11:31:57;6.90;;;3.03;;
8040;SDS011;4063;48.140;10.250;2022-08-30T11:37:09;6.10;;;3.13;;
8040;SDS011;4063;48.140;10.250;2022-08-30T11:44:48;6.03;;;3.05;;
8040;SDS011;4063;48.140;10.250;2022-08-30T11:50:05;4.10;;;3.28;;
8040;SDS011;4063;48.140;10.250;2022-08-30T11:52:36;3.60;;;3.30;;
8040;SDS011;4063;48.140;10.250;2022-08-30T11:57:59;3.85;;;2.90;;
8040;SDS011;4063;48.140;10.250;2022-08-30T12:00:32;6.25;;;3.25;;
8040;SDS011;4063;48.140;10.250;2022-08-30T12:03:03;3.75;;;3.13;;
8040;SDS011;4063;48.140;10.250;2022-08-30T12:10:39;3.22;;;2.92;;
8040;SDS011;4063;48.140;10.250;2022-08-30T12:13:05;4.60;;;3.00;;
8040;SDS011;4063;48.140;10.250;2022-08-30T12:18:17;4.45;;;3.35;;
8040;SDS011;4063;48.140;10.250;2022-08-30T12:20:55;3.40;;;3.10;;
8040;SDS011;4063;48.140;10.250;2022-08-30T12:23:29;4.38;;;3.25;;
8040;SDS011;4063;48.140;10.250;2022-08-30T12:31:48;5.10;;;2.97;;
8040;SDS011;4063;48.140;10.250;2022-08-30T12:34:24;3.70;;;3.30;;
8040;SDS011;4063;48.140;10.250;2022-08-30T12:39:20;3.40;;;3.10;;
8040;SDS011;4063;48.140;10.250;2022-08-30T12:41:46;3.28;;;3.00;;
8040;SDS011;4063;48.140;10.250;2022-08-30T12:44:14;3.92;;;2.78;;
8040;SDS011;4063;48.140;10.250;2022-08-30T12:46:41;4.60;;;2.83;;
8040;SDS011;4063;48.140;10.250;2022-08-30T12:49:08;3.42;;;2.60;;
8040;SDS011;4063;48.140;10.250;2022-08-30T12:51:39;3.95;;;2.95;;
8040;SDS011;4063;48.140;10.250;2022-08-30T12:54:27;3.42;;;2.97;;
8040;SDS011;4063;48.140;10.250;2022-08-30T12:56:57;21.88;;;3.30;;
8040;SDS011;4063;48.140;10.250;2022-08-30T13:04:42;4.30;;;2.80;;
8040;SDS011;4063;48.140;10.250;2022-08-30T13:07:09;2.58;;;2.38;;
8040;SDS011;4063;48.140;10.250;2022-08-30T13:09:36;2.55;;;2.33;;
8040;SDS011;4063;48.140;10.250;2022-08-30T13:12:19;5.50;;;2.85;;
8040;SDS011;4063;48.140;10.250;2022-08-30T13:14:46;3.10;;;2.80;;
8040;SDS011;4063;48.140;10.250;2022-08-30T13:17:21;5.88;;;2.55;;
8040;SDS011;4063;48.140;10.250;2022-08-30T13:22:33;3.30;;;3.00;;
8040;SDS011;4063;48.140;10.250;2022-08-30T13:24:59;3.33;;;2.65;;
8040;SDS011;4063;48.140;10.250;2022-08-30T13:27:25;6.82;;;3.13;;
8040;SDS011;4063;48.140;10.250;2022-08-30T13:29:52;4.15;;;2.80;;
8040;SDS011;4063;48.140;10.250;2022-08-30T13:32:18;3.63;;;2.55;;
8040;SDS011;4063;48.140;10.250;2022-08-30T13:34:44;3.00;;;2.70;;
8040;SDS011;4063;48.140;10.250;2022-08-30T13:37:12;6.63;;;2.83;;
8040;SDS011;4063;48.140;10.250;2022-08-30T13:39:39;3.72;;;2.30;;
8040;SDS011;4063;48.140;10.250;2022-08-30T13:42:05;8.00;;;2.78;;
8040;SDS011;4063;48.140;10.250;2022-08-30T13:44:31;21.90;;;3.55;;
8040;SDS011;4063;48.140;10.250;2022-08-30T13:46:58;3.50;;;2.50;;
8040;SDS011;4063;48.140;10.250;2022-08-30T13:49:26;4.35;;;2.90;;
8040;SDS011;4063;48.140;10.250;2022-08-30T13:51:52;9.27;;;2.95;;
8040;SDS011;4063;48.140;10.250;2022-08-30T13:54:21;3.33;;;3.03;;
8040;SDS011;4063;48.140;10.250;2022-08-30T13:56:50;2.72;;;2.53;;
8040;SDS011;4063;48.140;10.250;2022-08-30T13:59:17;2.83;;;2.53;;
8040;SDS011;4063;48.140;10.250;2022-08-30T14:01:43;3.78;;;2.65;;
8040;SDS011;4063;48.140;10.250;2022-08-30T14:04:10;3.15;;;2.70;;
8040;SDS011;4063;48.140;10.250;2022-08-30T14:06:36;2.80;;;2.60;;
8040;SDS011;4063;48.140;10.250;2022-08-30T14:09:02;2.83;;;2.30;;
8040;SDS011;4063;48.140;10.250;2022-08-30T14:11:30;3.28;;;2.58;;
8040;SDS011;4063;48.140;10.250;2022-08-30T14:13:56;5.18;;;2.80;;
8040;SDS011;4063;48.140;10.250;2022-08-30T14:16:22;4.43;;;2.80;;
8040;SDS011;4063;48.140;10.250;2022-08-30T14:18:48;4.85;;;3.00;;
8040;SDS011;4063;48.140;10.250;2022-08-30T14:21:14;6.60;;;2.85;;
8040;SDS011;4063;48.140;10.250;2022-08-30T14:23:40;3.92;;;2.72;;
8040;SDS011;4063;48.140;10.250;2022-08-30T14:26:11;3.80;;;2.60;;
8040;SDS011;4063;48.140;10.250;2022-08-30T14:28:38;4.50;;;2.83;;
8040;SDS011;4063;48.140;10.250;2022-08-30T14:31:04;3.20;;;2.92;;
8040;SDS011;4063;48.140;10.250;2022-08-30T14:33:30;3.00;;;2.80;;
8040;SDS011;4063;48.140;10.250;2022-08-30T14:35:56;3.95;;;3.03;;
8040;SDS011;4063;48.140;10.250;2022-08-30T14:38:22;3.40;;;3.08;;
8040;SDS011;4063;48.140;10.250;2022-08-30T14:40:48;5.90;;;2.67;;
8040;SDS011;4063;48.140;10.250;2022-08-30T14:43:14;3.55;;;2.83;;
8040;SDS011;4063;48.140;10.250;2022-08-30T14:45:40;4.55;;;3.10;;
8040;SDS011;4063;48.140;10.250;2022-08-30T14:48:06;3.45;;;2.80;;
8040;SDS011;4063;48.140;10.250;2022-08-30T14:50:36;6.35;;;3.00;;
8040;SDS011;4063;48.140;10.250;2022-08-30T14:53:02;2.88;;;2.58;;
8040;SDS011;4063;48.140;10.250;2022-08-30T14:55:28;3.33;;;2.85;;
8040;SDS011;4063;48.140;10.250;2022-08-30T14:57:55;5.38;;;2.90;;
8040;SDS011;4063;48.140;10.250;2022-08-30T15:00:22;3.10;;;2.80;;
8040;SDS011;4063;48.140;10.250;2022-08-30T15:02:48;3.05;;;2.75;;
8040;SDS011;4063;48.140;10.250;2022-08-30T15:05:14;3.10;;;2.80;;
8040;SDS011;4063;48.140;10.250;2022-08-30T15:07:40;5.45;;;3.05;;
8040;SDS011;4063;48.140;10.250;2022-08-30T15:10:07;3.58;;;2.80;;
8040;SDS011;4063;48.140;10.250;2022-08-30T15:12:33;10.10;;;2.90;;
8040;SDS011;4063;48.140;10.250;2022-08-30T15:14:59;3.63;;;2.95;;
8040;SDS011;4063;48.140;10.250;2022-08-30T15:17:25;2.65;;;2.42;;
8040;SDS011;4063;48.140;10.250;2022-08-30T15:19:51;2.80;;;2.60;;
8040;SDS011;4063;48.140;10.250;2022-08-30T15:22:17;3.83;;;2.72;;
8040;SDS011;4063;48.140;10.250;2022-08-30T15:24:43;4.28;;;2.72;;
8040;SDS011;4063;48.140;10.250;2022-08-30T15:27:09;4.13;;;2.63;;
8040;SDS011;4063;48.140;10.250;2022-08-30T15:29:35;8.05;;;3.00;;
8040;SDS011;4063;48.140;10.250;2022-08-30T15:32:02;2.75;;;2.55;;
8040;SDS011;4063;48.140;10.250;2022-08-30T15:34:28;2.63;;;2.40;;
8040;SDS011;4063;48.140;10.250;2022-08-30T15:36:55;2.83;;;2.60;;
8040;SDS011;4063;48.140;10.250;2022-08-30T15:39:21;3.72;;;2.80;;
8040;SDS011;4063;48.140;10.250;2022-08-30T15:41:47;5.30;;;2.55;;
8040;SDS011;4063;48.140;10.250;2022-08-30T15:44:13;4.15;;;2.83;;
8040;SDS011;4063;48.140;10.250;2022-08-30T15:46:41;4.47;;;2.80;;
8040;SDS011;4063;48.140;10.250;2022-08-30T15:51:33;4.55;;;2.75;;
8040;SDS011;4063;48.140;10.250;2022-08-30T15:54:00;2.67;;;2.47;;
8040;SDS011;4063;48.140;10.250;2022-08-30T15:56:27;4.82;;;3.28;;
8040;SDS011;4063;48.140;10.250;2022-08-30T15:58:53;3.03;;;2.72;;
8040;SDS011;4063;48.140;10.250;2022-08-30T16:01:20;3.72;;;2.80;;
8040;SDS011;4063;48.140;10.250;2022-08-30T16:03:46;3.33;;;2.72;;
8040;SDS011;4063;48.140;10.250;2022-08-30T16:06:17;3.40;;;3.08;;
8040;SDS011;4063;48.140;10.250;2022-08-30T16:08:43;3.53;;;3.17;;
8040;SDS011;4063;48.140;10.250;2022-08-30T16:11:10;3.17;;;2.88;;
8040;SDS011;4063;48.140;10.250;2022-08-30T16:13:36;4.65;;;3.28;;
8040;SDS011;4063;48.140;10.250;2022-08-30T16:16:03;3.50;;;3.20;;